Time;durP1;ratioP1;P1;durP2;ratioP2;P2;SDS_P1;SDS_P2;PMS_P1;PMS_P2;Temp;Humidity;BMP_temperature;BMP_pressure;BME280_temperature;BME280_humidity;BME280_pressure;Samples;Min_cycle;Max_cycle;Signal;HPM_P1;HPM_P2
2022/03/29 00:02:13;;;;;;;140.12;66.82;;;;;;;3.04;61.13;94316.98;1609453;87;21170;-53
2022/03/29 00:04:41;;;;;;;145.28;70.92;;;;;;;3.08;61.09;94317.09;1600732;88;20990;-53
2022/03/29 00:07:09;;;;;;;154.57;77.80;;;;;;;3.11;61.00;94313.58;1607401;87;21581;-53
2022/03/29 00:09:36;;;;;;;138.40;68.33;;;;;;;3.14;60.65;94318.76;1609727;87;21137;-52
2022/03/29 00:12:04;;;;;;;139.43;63.33;;;;;;;3.17;60.81;94318.72;1594796;88;21203;-52
2022/03/29 00:14:31;;;;;;;140.70;64.50;;;;;;;3.21;60.57;94313.24;1608661;87;21211;-49
2022/03/29 00:16:59;;;;;;;145.55;70.62;;;;;;;3.19;60.52;94308.78;1596737;87;21088;-51
2022/03/29 00:19:26;;;;;;;139.15;68.33;;;;;;;3.20;60.87;94300.83;1592367;88;21042;-51
2022/03/29 00:21:53;;;;;;;140.75;63.20;;;;;;;3.18;60.96;94308.60;1597395;88;21057;-51
2022/03/29 00:24:21;;;;;;;122.85;61.00;;;;;;;3.09;61.42;94303.68;1584342;89;20990;-52
2022/03/29 00:26:48;;;;;;;145.22;69.82;;;;;;;3.01;61.70;94298.75;1602591;87;21126;-52
2022/03/29 00:29:15;;;;;;;132.78;59.73;;;;;;;2.91;61.74;94292.89;1588809;89;21043;-53
2022/03/29 00:31:42;;;;;;;158.42;76.77;;;;;;;2.84;61.63;94290.28;1582414;88;21051;-54
2022/03/29 00:34:11;;;;;;;160.25;75.83;;;;;;;2.72;61.87;94295.66;1592221;88;21102;-54
2022/03/29 00:36:40;;;;;;;135.75;64.47;;;;;;;2.62;62.21;94278.93;1600777;88;21016;-54
2022/03/29 00:39:07;;;;;;;136.03;67.75;;;;;;;2.58;62.46;94283.64;1602833;87;21602;-53
2022/03/29 00:41:35;;;;;;;128.72;62.00;;;;;;;2.56;62.58;94277.85;1590889;88;21047;-53
2022/03/29 00:44:05;;;;;;;123.35;59.77;;;;;;;2.51;62.74;94266.67;1612497;87;21554;-51
2022/03/29 00:46:35;;;;;;;112.12;57.33;;;;;;;2.46;62.89;94263.03;1573646;87;21163;-53
2022/03/29 00:49:02;;;;;;;116.77;56.28;;;;;;;2.47;63.01;94261.28;1596611;88;21082;-54
2022/03/29 00:51:30;;;;;;;110.65;52.17;;;;;;;2.45;63.20;94265.56;1598160;88;21153;-49
2022/03/29 00:53:57;;;;;;;110.50;53.50;;;;;;;2.44;63.50;94258.02;1607978;87;21679;-51
2022/03/29 00:56:25;;;;;;;100.53;50.03;;;;;;;2.51;63.70;94258.53;1598400;88;21510;-53
2022/03/29 00:58:52;;;;;;;144.20;66.62;;;;;;;2.53;63.77;94260.24;1603014;87;21058;-53
2022/03/29 01:01:20;;;;;;;132.35;62.95;;;;;;;2.56;63.67;94258.06;1612138;87;21092;-51
2022/03/29 01:03:48;;;;;;;116.97;58.40;;;;;;;2.56;63.51;94256.71;1609652;88;22657;-53
2022/03/29 01:06:16;;;;;;;135.15;67.67;;;;;;;2.56;63.45;94252.64;1597809;87;21079;-52
2022/03/29 01:08:44;;;;;;;131.47;62.38;;;;;;;2.55;63.38;94247.03;1603040;87;21041;-53
2022/03/29 01:11:13;;;;;;;125.65;60.28;;;;;;;2.54;63.44;94247.60;1599013;87;21104;-52
2022/03/29 01:13:41;;;;;;;120.57;59.27;;;;;;;2.58;63.25;94244.84;1613270;87;21065;-52
2022/03/29 01:18:56;;;;;;;112.52;55.65;;;;;;;2.55;62.75;94242.95;1599776;87;21702;-53
2022/03/29 01:21:23;;;;;;;115.00;55.17;;;;;;;2.59;62.70;94239.60;1600998;87;21041;-51
2022/03/29 01:23:51;;;;;;;113.50;54.05;;;;;;;2.62;62.40;94230.63;1588815;88;21049;-52
2022/03/29 01:26:18;;;;;;;104.43;51.33;;;;;;;2.62;62.35;94236.06;1610481;87;21080;-52
2022/03/29 01:28:47;;;;;;;146.80;70.50;;;;;;;2.66;62.17;94232.73;1573306;87;21296;-53
2022/03/29 01:31:15;;;;;;;144.95;71.53;;;;;;;2.63;62.29;94230.81;1603648;87;21070;-52
2022/03/29 01:33:43;;;;;;;143.57;71.10;;;;;;;2.60;62.51;94226.20;1600345;87;21059;-51
2022/03/29 01:36:12;;;;;;;162.80;79.77;;;;;;;2.62;62.93;94225.20;1608797;88;21097;-51
2022/03/29 01:38:40;;;;;;;189.55;96.55;;;;;;;2.62;63.04;94225.20;1607752;87;21025;-51
2022/03/29 01:41:08;;;;;;;157.95;74.27;;;;;;;2.58;63.17;94221.78;1598187;88;21185;-53
2022/03/29 01:43:36;;;;;;;119.85;61.05;;;;;;;2.51;63.10;94212.38;1577063;88;21501;-53
2022/03/29 01:46:07;;;;;;;124.78;61.05;;;;;;;2.45;63.06;94214.78;1610929;87;21048;-52
2022/03/29 01:48:34;;;;;;;126.38;60.83;;;;;;;2.41;63.01;94214.64;1604350;87;21026;-52
2022/03/29 01:51:01;;;;;;;142.90;69.65;;;;;;;2.44;63.39;94208.39;1602917;87;21219;-52
2022/03/29 01:53:28;;;;;;;145.50;70.28;;;;;;;2.47;63.51;94210.31;1599542;87;21121;-53
2022/03/29 01:55:57;;;;;;;144.13;69.05;;;;;;;2.43;63.93;94203.56;1607159;87;21482;-52
2022/03/29 01:58:25;;;;;;;138.37;67.97;;;;;;;2.34;64.32;94207.35;1600282;88;21137;-52
2022/03/29 02:00:52;;;;;;;108.20;49.25;;;;;;;2.37;64.44;94200.35;1581614;88;21117;-54
2022/03/29 02:03:20;;;;;;;111.68;52.90;;;;;;;2.45;64.64;94196.35;1593399;88;21058;-50
2022/03/29 02:05:49;;;;;;;109.22;51.10;;;;;;;2.50;64.34;94193.20;1598697;87;22219;-52
2022/03/29 02:08:18;;;;;;;118.80;56.70;;;;;;;2.48;64.02;94186.06;1595594;88;21517;-52
2022/03/29 02:10:46;;;;;;;112.25;56.02;;;;;;;2.41;64.10;94190.21;1614084;87;21141;-51
2022/03/29 02:13:14;;;;;;;111.65;55.05;;;;;;;2.38;64.19;94185.61;1609055;87;21059;-52
2022/03/29 02:15:42;;;;;;;124.97;58.78;;;;;;;2.30;64.46;94189.00;1589183;87;21605;-52
2022/03/29 02:18:11;;;;;;;108.78;51.85;;;;;;;2.25;64.79;94183.25;1597862;88;21085;-52
2022/03/29 02:20:40;;;;;;;205.35;89.03;;;;;;;2.26;64.77;94178.78;1611999;88;21057;-53
2022/03/29 02:23:09;;;;;;;304.35;122.50;;;;;;;2.27;64.80;94178.19;1613536;87;21284;-54
2022/03/29 02:25:36;;;;;;;175.22;80.22;;;;;;;2.33;64.61;94176.57;1606501;87;21039;-54
2022/03/29 02:28:04;;;;;;;145.25;67.20;;;;;;;2.35;64.55;94171.50;1606280;87;21128;-52
2022/03/29 02:30:32;;;;;;;130.00;59.40;;;;;;;2.31;64.22;94164.76;1591679;88;21238;-53
2022/03/29 02:33:01;;;;;;;153.87;70.90;;;;;;;2.24;64.26;94177.64;1601550;87;21104;-51
2022/03/29 02:35:29;;;;;;;151.65;69.53;;;;;;;2.21;64.21;94167.61;1597152;88;21503;-52
2022/03/29 02:37:56;;;;;;;109.05;52.93;;;;;;;2.20;64.59;94165.51;1609668;87;21203;-53
2022/03/29 02:40:23;;;;;;;228.42;101.45;;;;;;;2.21;64.23;94159.48;1615768;87;21548;-52
2022/03/29 02:42:53;;;;;;;224.50;100.02;;;;;;;2.17;64.47;94166.90;1604079;87;21525;-53
2022/03/29 02:45:23;;;;;;;212.32;95.97;;;;;;;2.19;64.35;94159.12;1599878;87;21109;-53
2022/03/29 02:47:55;;;;;;;238.07;105.22;;;;;;;2.21;64.35;94152.69;1592791;88;21453;-50
2022/03/29 02:50:23;;;;;;;130.85;62.38;;;;;;;2.24;64.29;94154.01;1601202;87;28218;-53
2022/03/29 02:52:57;;;;;;;128.25;60.30;;;;;;;2.26;64.43;94148.16;1606374;87;21523;-52
2022/03/29 02:55:27;;;;;;;121.13;54.48;;;;;;;2.29;64.79;94151.44;1616774;87;21208;-52
2022/03/29 02:57:55;;;;;;;148.80;61.40;;;;;;;2.24;64.30;94139.09;1616597;87;21169;-51
2022/03/29 03:00:23;;;;;;;207.95;81.40;;;;;;;2.16;64.27;94146.38;1581761;89;21102;-51
2022/03/29 03:02:57;;;;;;;245.90;95.32;;;;;;;2.11;64.72;94149.55;1598495;88;21019;-55
2022/03/29 03:05:24;;;;;;;227.93;81.25;;;;;;;2.02;64.94;94139.77;1603954;88;21031;-53
2022/03/29 03:07:51;;;;;;;174.77;74.15;;;;;;;1.99;65.29;94142.70;1609927;87;21205;-54
2022/03/29 03:10:18;;;;;;;173.38;66.60;;;;;;;1.91;65.59;94143.98;1594968;87;21464;-53
2022/03/29 03:12:47;;;;;;;189.97;79.53;;;;;;;1.77;65.82;94142.79;1612928;86;21529;-52
2022/03/29 03:15:18;;;;;;;323.70;114.28;;;;;;;1.70;66.20;94136.68;1594019;87;21031;-49
2022/03/29 03:17:45;;;;;;;349.15;118.50;;;;;;;1.73;66.26;94140.71;1604346;87;20983;-51
2022/03/29 03:20:14;;;;;;;421.87;137.45;;;;;;;1.69;66.05;94127.02;1611271;87;21929;-53
2022/03/29 03:22:42;;;;;;;386.37;129.27;;;;;;;1.63;66.29;94125.93;1602648;87;21057;-51
2022/03/29 03:25:10;;;;;;;198.32;73.75;;;;;;;1.67;66.42;94128.01;1596078;88;21079;-51
2022/03/29 03:27:40;;;;;;;215.97;80.15;;;;;;;1.68;66.39;94126.08;1612031;87;22495;-54
2022/03/29 03:30:09;;;;;;;241.75;87.15;;;;;;;1.63;66.41;94129.22;1595089;88;21648;-51
2022/03/29 03:32:37;;;;;;;293.10;100.35;;;;;;;1.62;66.61;94117.63;1611711;87;21153;-51
2022/03/29 03:35:05;;;;;;;334.57;113.92;;;;;;;1.63;66.68;94111.02;1621051;87;21570;-53
2022/03/29 03:37:37;;;;;;;322.07;114.60;;;;;;;1.66;66.92;94104.78;1614722;87;21190;-53
2022/03/29 03:40:04;;;;;;;218.25;83.30;;;;;;;1.81;66.92;94110.22;1602677;87;21104;-53
2022/03/29 03:42:31;;;;;;;157.18;67.37;;;;;;;1.91;66.37;94105.23;1592995;88;21152;-51
2022/03/29 03:44:59;;;;;;;144.32;61.33;;;;;;;1.87;66.17;94107.22;1596490;88;21232;-52
2022/03/29 03:47:26;;;;;;;141.15;62.85;;;;;;;1.72;66.31;94107.82;1609213;87;21172;-51
2022/03/29 03:49:54;;;;;;;142.77;65.10;;;;;;;1.61;66.35;94097.11;1602682;87;21108;-54
2022/03/29 03:52:22;;;;;;;264.15;109.75;;;;;;;1.55;66.60;94101.45;1596820;88;21169;-53
2022/03/29 03:54:49;;;;;;;157.47;69.00;;;;;;;1.56;66.81;94109.77;1574909;87;21115;-53
2022/03/29 03:57:18;;;;;;;133.63;61.83;;;;;;;1.47;66.95;94106.76;1612126;87;21257;-53
2022/03/29 03:59:48;;;;;;;129.80;61.10;;;;;;;1.41;67.18;94097.55;1597164;88;21103;-51
2022/03/29 04:02:15;;;;;;;204.97;90.85;;;;;;;1.39;67.41;94095.05;1601690;88;21294;-53
2022/03/29 04:04:44;;;;;;;255.20;114.62;;;;;;;1.43;67.55;94099.27;1601406;87;21637;-52
2022/03/29 04:07:13;;;;;;;239.78;105.07;;;;;;;1.50;67.42;94093.75;1612142;87;21087;-52
2022/03/29 04:09:40;;;;;;;135.57;64.87;;;;;;;1.58;67.34;94095.79;1602185;87;21285;-51
2022/03/29 04:12:09;;;;;;;136.88;65.28;;;;;;;1.59;67.01;94091.91;1581141;89;21094;-52
2022/03/29 04:14:37;;;;;;;132.85;65.42;;;;;;;1.57;67.25;94102.39;1613005;88;21085;-52
2022/03/29 04:17:06;;;;;;;186.82;80.62;;;;;;;1.63;67.59;94092.63;1599772;88;21212;-52
2022/03/29 04:19:33;;;;;;;225.87;100.45;;;;;;;1.68;67.14;94095.66;1594402;88;21148;-51
2022/03/29 04:22:01;;;;;;;196.85;86.87;;;;;;;1.65;66.99;94085.64;1599316;87;21285;-53
2022/03/29 04:24:28;;;;;;;125.95;60.50;;;;;;;1.66;67.20;94092.59;1610025;87;21029;-53
2022/03/29 04:26:56;;;;;;;129.45;59.90;;;;;;;1.69;67.08;94082.28;1588641;88;21045;-51
2022/03/29 04:29:24;;;;;;;182.78;83.62;;;;;;;1.70;67.25;94080.36;1584861;88;21590;-52
2022/03/29 04:31:53;;;;;;;168.47;81.05;;;;;;;1.72;66.96;94073.34;1599027;87;21564;-53
2022/03/29 04:34:21;;;;;;;178.25;79.72;;;;;;;1.74;67.14;94063.63;1616375;87;21149;-52
2022/03/29 04:36:50;;;;;;;169.77;70.37;;;;;;;1.86;67.05;94062.31;1591849;87;21083;-51
2022/03/29 04:39:17;;;;;;;164.50;73.00;;;;;;;1.90;66.62;94065.73;1600346;88;21099;-51
2022/03/29 04:41:45;;;;;;;189.43;93.78;;;;;;;1.86;66.67;94060.95;1594573;87;21061;-52
2022/03/29 04:44:13;;;;;;;210.50;99.00;;;;;;;1.85;66.86;94060.77;1619964;87;21678;-52
2022/03/29 04:46:41;;;;;;;177.68;81.90;;;;;;;1.87;67.17;94055.70;1596061;87;21109;-50
2022/03/29 04:49:09;;;;;;;191.03;98.72;;;;;;;1.92;67.09;94057.98;1608718;88;21101;-50
2022/03/29 04:51:37;;;;;;;182.25;92.90;;;;;;;1.96;67.16;94055.98;1621151;87;21099;-51
2022/03/29 04:54:05;;;;;;;186.82;90.15;;;;;;;2.06;67.12;94059.11;1614225;88;21059;-52
2022/03/29 04:56:33;;;;;;;194.28;97.27;;;;;;;2.16;66.97;94044.64;1607463;87;21132;-51
2022/03/29 04:59:00;;;;;;;163.87;79.05;;;;;;;2.19;67.31;94053.31;1625228;87;22684;-55
2022/03/29 05:01:29;;;;;;;166.37;82.20;;;;;;;2.24;67.04;94050.13;1616415;87;22233;-54
2022/03/29 05:03:57;;;;;;;162.95;79.25;;;;;;;2.29;66.81;94045.61;1610884;87;21108;-54
2022/03/29 05:06:25;;;;;;;150.30;74.75;;;;;;;2.32;66.64;94037.39;1600994;88;21093;-49
2022/03/29 05:08:54;;;;;;;164.70;82.35;;;;;;;2.31;66.67;94033.75;1594417;88;21054;-50
2022/03/29 05:11:22;;;;;;;184.78;97.27;;;;;;;2.25;66.67;94030.73;1599228;87;21331;-53
2022/03/29 05:13:50;;;;;;;185.90;94.22;;;;;;;2.25;66.67;94036.73;1614180;87;21740;-51
2022/03/29 05:16:19;;;;;;;183.97;94.65;;;;;;;2.23;66.82;94026.31;1603456;87;21177;-50
2022/03/29 05:18:47;;;;;;;183.65;95.15;;;;;;;2.26;66.88;94029.55;1604264;87;21125;-50
2022/03/29 05:21:15;;;;;;;165.25;89.55;;;;;;;2.35;67.33;94027.07;1601601;87;21191;-51
2022/03/29 05:23:43;;;;;;;160.52;85.65;;;;;;;2.51;67.09;94037.30;1587041;87;21740;-51
2022/03/29 05:26:11;;;;;;;174.95;88.45;;;;;;;2.61;66.76;94038.48;1602303;87;21081;-50
2022/03/29 05:28:38;;;;;;;172.82;88.12;;;;;;;2.67;66.69;94034.70;1587119;87;21053;-50
2022/03/29 05:31:06;;;;;;;178.82;93.47;;;;;;;2.78;66.66;94030.63;1603504;87;21090;-50
2022/03/29 05:33:34;;;;;;;170.65;88.52;;;;;;;2.92;66.72;94039.11;1619620;86;21141;-51
2022/03/29 05:36:03;;;;;;;189.55;91.90;;;;;;;3.12;66.49;94038.53;1598255;87;21174;-50
2022/03/29 05:38:30;;;;;;;214.02;104.58;;;;;;;3.26;66.03;94032.84;1595109;88;21003;-51
2022/03/29 05:40:58;;;;;;;195.32;94.52;;;;;;;3.37;65.73;94032.02;1608284;87;21123;-54
2022/03/29 05:43:25;;;;;;;197.10;102.78;;;;;;;3.49;65.48;94029.47;1594578;87;21144;-51
2022/03/29 05:48:52;;;;;;;140.03;69.82;;;;;;;3.72;64.87;94027.40;1596388;88;21296;-51
2022/03/29 05:51:21;;;;;;;166.80;85.17;;;;;;;3.79;64.59;94016.38;1590919;88;21031;-51
2022/03/29 05:53:49;;;;;;;142.15;71.60;;;;;;;3.89;64.49;94004.48;1577757;88;21092;-51
2022/03/29 05:56:17;;;;;;;201.80;99.15;;;;;;;3.99;64.19;94004.86;1580924;89;21618;-51
2022/03/29 05:58:44;;;;;;;177.78;89.30;;;;;;;4.02;64.04;93991.77;1601806;87;21094;-52
2022/03/29 06:01:12;;;;;;;150.87;80.17;;;;;;;4.08;64.00;94002.31;1593287;88;21274;-56
2022/03/29 06:03:39;;;;;;;152.27;79.42;;;;;;;4.15;63.90;93996.72;1575713;88;21119;-50
2022/03/29 06:06:08;;;;;;;133.40;70.20;;;;;;;4.24;63.75;93999.60;1579189;87;21079;-49
2022/03/29 06:08:35;;;;;;;150.30;72.45;;;;;;;4.32;63.64;93998.27;1608393;87;21542;-51
2022/03/29 06:11:04;;;;;;;134.67;69.37;;;;;;;4.41;63.50;93982.08;1586955;87;21071;-52
2022/03/29 06:13:32;;;;;;;131.55;70.87;;;;;;;4.56;63.47;93985.99;1609314;87;21794;-52
2022/03/29 06:16:00;;;;;;;157.15;83.62;;;;;;;4.74;63.26;93994.48;1577068;88;21223;-51
2022/03/29 06:18:27;;;;;;;158.63;86.12;;;;;;;4.92;63.00;93975.72;1592835;88;21239;-52
2022/03/29 06:20:56;;;;;;;142.07;82.15;;;;;;;5.15;62.73;93980.18;1573321;88;21180;-52
2022/03/29 06:23:24;;;;;;;133.87;73.25;;;;;;;5.37;62.12;93970.38;1593624;87;21635;-55
2022/03/29 06:25:51;;;;;;;114.55;63.02;;;;;;;5.58;61.85;93970.38;1582053;88;21172;-51
2022/03/29 06:28:18;;;;;;;99.25;56.60;;;;;;;5.82;61.49;93971.64;1570609;88;21022;-51
2022/03/29 06:30:46;;;;;;;106.40;55.58;;;;;;;6.04;60.89;93971.93;1604972;87;21103;-50
2022/03/29 06:33:13;;;;;;;81.20;45.55;;;;;;;6.22;60.28;93968.64;1601468;87;21086;-51
2022/03/29 06:35:42;;;;;;;80.85;44.53;;;;;;;6.43;59.65;93962.50;1596148;87;21111;-53
2022/03/29 06:38:10;;;;;;;83.85;43.75;;;;;;;6.66;59.27;93971.71;1578611;88;21138;-52
2022/03/29 06:40:37;;;;;;;90.97;46.08;;;;;;;6.86;58.51;93963.39;1610227;87;20987;-53
2022/03/29 06:43:05;;;;;;;84.45;48.90;;;;;;;7.08;58.07;93966.91;1609457;86;21593;-56
2022/03/29 06:45:33;;;;;;;74.67;38.80;;;;;;;7.27;57.20;93964.48;1578233;87;70418;-53
2022/03/29 06:48:02;;;;;;;78.55;40.73;;;;;;;7.45;56.59;93964.62;1543263;87;21093;-51
2022/03/29 06:50:31;;;;;;;78.70;41.18;;;;;;;7.63;55.98;93956.52;1520903;91;21865;-53
2022/03/29 06:52:59;;;;;;;105.00;41.68;;;;;;;7.84;55.58;93955.14;1524990;91;21600;-53
2022/03/29 06:55:27;;;;;;;92.02;46.42;;;;;;;8.09;55.01;93948.09;1522837;91;22439;-54
2022/03/29 06:57:55;;;;;;;70.22;40.73;;;;;;;8.33;54.53;93936.83;1506468;93;21122;-51
2022/03/29 07:00:23;;;;;;;96.70;46.13;;;;;;;8.57;53.61;93932.91;1540678;91;21104;-52
2022/03/29 07:02:52;;;;;;;44.83;22.10;;;;;;;8.82;52.64;93930.67;1532579;91;21255;-54
2022/03/29 07:05:24;;;;;;;29.00;11.97;;;;;;;9.23;49.17;93931.48;1518630;92;21199;-56
2022/03/29 07:07:51;;;;;;;29.52;10.88;;;;;;;10.06;46.12;93928.31;1508578;92;21084;-53
2022/03/29 07:14:17;;;;;;;25.90;10.82;;;;;;;11.68;42.09;93919.78;1526830;91;21023;-54
2022/03/29 07:16:59;;;;;;;34.80;12.47;;;;;;;12.43;39.99;93921.42;1523039;91;21206;-52
2022/03/29 07:19:34;;;;;;;29.87;12.35;;;;;;;12.79;39.36;93921.70;1527733;91;21126;-53
2022/03/29 07:22:01;;;;;;;24.05;9.15;;;;;;;13.11;38.40;93908.23;1541514;91;21125;-52
2022/03/29 07:24:30;;;;;;;25.52;11.03;;;;;;;13.33;37.30;93918.16;1524427;91;21090;-52
2022/03/29 07:26:58;;;;;;;31.40;10.68;;;;;;;13.51;36.90;93911.73;1539129;89;21235;-57
2022/03/29 07:29:26;;;;;;;20.17;9.80;;;;;;;13.68;36.47;93927.11;1534669;90;21224;-55
2022/03/29 07:31:54;;;;;;;30.00;10.28;;;;;;;13.79;35.60;93912.03;1532326;91;21086;-54
2022/03/29 07:34:21;;;;;;;31.37;9.33;;;;;;;13.90;34.73;93905.22;1530872;91;21726;-53
2022/03/29 07:36:51;;;;;;;30.72;9.53;;;;;;;13.99;34.45;93902.30;1520017;91;21127;-52
2022/03/29 07:39:19;;;;;;;15.48;8.00;;;;;;;14.04;34.62;93902.97;1511868;91;21107;-55
2022/03/29 07:41:47;;;;;;;23.55;9.98;;;;;;;14.11;34.59;93906.66;1536889;90;21191;-54
2022/03/29 07:44:22;;;;;;;20.48;8.68;;;;;;;14.19;34.59;93906.40;1553314;89;21091;-57
2022/03/29 07:47:01;;;;;;;18.85;9.50;;;;;;;14.29;34.22;93904.34;1542342;91;21155;-52
2022/03/29 07:49:40;;;;;;;34.33;9.38;;;;;;;14.38;34.12;93909.69;1557067;89;21020;-52
2022/03/29 07:52:15;;;;;;;17.37;9.70;;;;;;;14.50;34.32;93923.75;1527069;91;21316;-54
2022/03/29 07:54:45;;;;;;;22.73;9.65;;;;;;;14.64;34.45;93916.68;1541516;90;21205;-55
2022/03/29 07:57:15;;;;;;;15.95;8.60;;;;;;;14.76;34.17;93911.36;1539310;90;21119;-53
2022/03/29 07:59:47;;;;;;;20.12;9.65;;;;;;;14.88;34.35;93910.19;1531667;91;21123;-56
2022/03/29 08:02:18;;;;;;;25.85;9.58;;;;;;;15.03;33.91;93905.22;1515868;91;21210;-54
2022/03/29 08:04:46;;;;;;;22.30;9.03;;;;;;;15.06;33.32;93909.79;1517901;92;21593;-53
2022/03/29 08:07:14;;;;;;;22.27;9.25;;;;;;;15.07;33.28;93908.53;1523040;92;21128;-53
2022/03/29 08:09:42;;;;;;;25.50;9.98;;;;;;;15.08;33.51;93900.35;1525559;89;21076;-53
2022/03/29 08:12:10;;;;;;;17.67;8.18;;;;;;;15.16;33.02;93895.84;1528278;91;21103;-56
2022/03/29 08:14:40;;;;;;;15.83;8.30;;;;;;;15.25;33.24;93900.42;1535315;90;21144;-53
2022/03/29 08:17:09;;;;;;;18.42;8.40;;;;;;;15.34;32.90;93885.75;1524953;91;21665;-53
2022/03/29 08:19:38;;;;;;;16.32;11.03;;;;;;;15.35;32.90;93898.35;1540058;91;21097;-52
2022/03/29 08:22:05;;;;;;;20.62;8.73;;;;;;;15.41;33.09;93887.29;1539907;90;21092;-54
2022/03/29 08:24:33;;;;;;;24.05;9.50;;;;;;;15.50;32.26;93897.53;1529021;91;21120;-49
2022/03/29 08:27:00;;;;;;;27.27;9.60;;;;;;;15.58;33.14;93897.17;1524893;90;22078;-53
2022/03/29 08:29:27;;;;;;;23.95;9.10;;;;;;;15.64;32.85;93886.88;1530463;91;21052;-54
2022/03/29 08:31:56;;;;;;;29.75;8.58;;;;;;;15.66;32.29;93903.77;1528013;91;21924;-53
2022/03/29 08:34:25;;;;;;;26.97;9.03;;;;;;;15.62;32.47;93894.94;1533489;90;21067;-57
2022/03/29 08:36:52;;;;;;;16.95;8.53;;;;;;;15.61;32.93;93907.28;1524327;91;21066;-57
2022/03/29 08:39:20;;;;;;;15.78;10.63;;;;;;;15.63;32.62;93901.99;1522203;91;22020;-55
2022/03/29 08:42:10;;;;;;;14.90;8.53;;;;;;;15.67;32.83;93896.95;1532413;91;21145;-55
2022/03/29 08:44:39;;;;;;;23.35;10.45;;;;;;;15.74;33.01;93895.08;1530500;91;21683;-57
2022/03/29 08:47:08;;;;;;;30.27;10.23;;;;;;;15.86;32.86;93888.30;1528494;90;21259;-51
2022/03/29 08:49:37;;;;;;;22.80;10.43;;;;;;;16.00;33.11;93880.39;1531569;89;21122;-57
2022/03/29 08:52:07;;;;;;;15.00;8.33;;;;;;;16.17;32.71;93877.00;1543781;91;22282;-55
2022/03/29 08:54:36;;;;;;;19.10;8.60;;;;;;;16.32;32.61;93871.94;1535513;89;21109;-55
2022/03/29 08:57:06;;;;;;;17.00;8.63;;;;;;;16.45;32.96;93865.28;1537974;89;21455;-56
2022/03/29 08:59:35;;;;;;;11.57;9.20;;;;;;;16.63;32.96;93864.14;1538941;91;21571;-54
2022/03/29 09:02:16;;;;;;;17.80;9.03;;;;;;;16.75;32.79;93853.77;1521538;91;21779;-55
2022/03/29 09:04:45;;;;;;;15.40;8.63;;;;;;;16.83;32.49;93854.75;1520566;91;21096;-55
2022/03/29 09:07:14;;;;;;;12.30;9.00;;;;;;;16.90;32.27;93849.43;1543389;90;21153;-53
2022/03/29 09:09:44;;;;;;;14.10;8.68;;;;;;;16.94;32.16;93848.53;1530072;91;21621;-55
2022/03/29 09:12:17;;;;;;;24.82;8.98;;;;;;;16.96;32.26;93845.25;1534613;91;21480;-53
2022/03/29 09:14:59;;;;;;;18.92;8.83;;;;;;;16.98;32.42;93832.38;1543775;90;21471;-57
2022/03/29 09:17:34;;;;;;;13.15;8.63;;;;;;;17.01;32.12;93838.91;1534640;91;21046;-56
2022/03/29 09:20:12;;;;;;;15.48;7.92;;;;;;;16.98;32.36;93836.55;1543293;91;21060;-55
2022/03/29 09:22:50;;;;;;;23.47;9.65;;;;;;;17.03;32.39;93834.98;1532338;91;21920;-52
2022/03/29 09:25:26;;;;;;;20.65;9.85;;;;;;;17.08;32.40;93830.81;1519551;91;21958;-51
2022/03/29 09:28:13;;;;;;;17.92;9.50;;;;;;;17.17;32.45;93827.76;1526536;90;21122;-56
2022/03/29 09:30:50;;;;;;;15.40;7.92;;;;;;;17.29;32.30;93838.94;1543320;90;21106;-52
2022/03/29 09:33:20;;;;;;;21.12;9.28;;;;;;;17.33;31.88;93853.97;1525555;91;21892;-56
2022/03/29 09:36:07;;;;;;;14.75;8.75;;;;;;;17.13;32.24;93839.01;1530678;91;21306;-52
2022/03/29 09:38:40;;;;;;;17.82;11.45;;;;;;;16.86;32.51;93838.45;1527946;91;21070;-55
2022/03/29 09:41:32;;;;;;;17.42;9.48;;;;;;;16.65;33.14;93831.68;1532892;91;21076;-54
2022/03/29 09:44:09;;;;;;;35.70;9.65;;;;;;;16.58;33.27;93818.33;1526444;91;21976;-53
2022/03/29 09:46:56;;;;;;;22.82;9.00;;;;;;;16.63;33.47;93807.21;1527406;90;21221;-52
2022/03/29 09:49:24;;;;;;;19.07;8.65;;;;;;;16.83;33.18;93806.13;1518722;92;22213;-51
2022/03/29 09:52:17;;;;;;;16.80;9.20;;;;;;;17.14;33.31;93791.88;1524758;92;21855;-52
2022/03/29 09:55:20;;;;;;;15.50;8.73;;;;;;;17.43;32.62;93797.58;1518860;92;21099;-55
2022/03/29 09:57:50;;;;;;;11.63;7.80;;;;;;;17.69;32.07;93784.03;1532596;91;21130;-53
2022/03/29 10:00:32;;;;;;;25.70;9.40;;;;;;;17.92;31.61;93790.17;1539054;90;21048;-54
2022/03/29 10:03:02;;;;;;;83.37;13.90;;;;;;;18.11;31.64;93779.91;1538995;91;21409;-55
2022/03/29 10:05:30;;;;;;;31.82;10.55;;;;;;;18.24;31.15;93787.79;1548828;91;21097;-50
2022/03/29 10:10:52;;;;;;;26.07;10.25;;;;;;;18.39;31.30;93773.63;1536857;91;21063;-56
2022/03/29 10:13:23;;;;;;;18.37;8.95;;;;;;;18.61;30.70;93776.18;1533067;91;21305;-52
2022/03/29 10:15:54;;;;;;;13.28;8.63;;;;;;;18.81;30.62;93770.80;1546474;91;21215;-51
2022/03/29 10:18:25;;;;;;;16.50;9.40;;;;;;;18.99;30.08;93767.30;1541362;90;21210;-52
2022/03/29 10:20:56;;;;;;;21.25;9.20;;;;;;;19.17;29.81;93766.59;1511898;93;21109;-53
2022/03/29 10:23:24;;;;;;;17.15;9.40;;;;;;;19.36;29.58;93779.92;1545518;90;21042;-52
2022/03/29 10:25:52;;;;;;;43.25;10.50;;;;;;;19.52;29.23;93762.20;1550906;91;21081;-54
2022/03/29 10:28:21;;;;;;;21.60;9.45;;;;;;;19.75;29.00;93759.20;1537173;91;21151;-52
2022/03/29 10:30:48;;;;;;;39.18;18.05;;;;;;;19.92;28.47;93752.73;1516767;93;22439;-50
2022/03/29 10:33:27;;;;;;;17.07;9.70;;;;;;;20.03;28.43;93749.14;1519111;92;21606;-51
2022/03/29 10:36:13;;;;;;;15.05;8.95;;;;;;;20.24;28.16;93754.25;1500212;94;21100;-54
2022/03/29 10:38:51;;;;;;;19.75;9.53;;;;;;;20.49;27.95;93736.03;1521602;92;21536;-52
2022/03/29 10:41:32;;;;;;;28.45;9.55;;;;;;;20.75;27.26;93744.45;1521184;92;21187;-51
2022/03/29 10:44:02;;;;;;;15.28;8.65;;;;;;;20.92;27.02;93734.47;1532446;91;21215;-53
2022/03/29 10:46:47;;;;;;;16.60;8.85;;;;;;;21.11;26.61;93736.50;1501379;94;21094;-53
2022/03/29 10:49:27;;;;;;;16.82;9.33;;;;;;;21.26;26.56;93731.77;1507329;92;21027;-55
2022/03/29 10:52:01;;;;;;;13.78;8.53;;;;;;;21.28;26.11;93723.59;1497895;93;22405;-51
2022/03/29 10:54:42;;;;;;;20.93;9.60;;;;;;;21.45;26.21;93716.98;1501160;93;21404;-53
2022/03/29 10:57:31;;;;;;;16.12;10.08;;;;;;;21.80;25.89;93715.81;1492311;94;21177;-54
2022/03/29 11:00:18;;;;;;;14.58;12.07;;;;;;;22.06;25.37;93724.86;1490027;94;21656;-56
2022/03/29 11:03:11;;;;;;;13.38;8.70;;;;;;;22.29;25.19;93713.87;1534747;92;21082;-53
2022/03/29 11:06:10;;;;;;;17.25;9.93;;;;;;;22.65;24.54;93701.45;1530801;91;21137;-51
2022/03/29 11:08:42;;;;;;;25.70;10.15;;;;;;;22.83;24.31;93689.23;1531986;90;21852;-55
2022/03/29 11:11:31;;;;;;;;;;;;;;;23.10;23.96;93696.14;1526804;92;21169;-54
2022/03/29 11:14:32;;;;;;;17.55;8.95;;;;;;;23.32;23.49;93696.16;1526286;91;20336;-55
2022/03/29 11:17:09;;;;;;;15.08;9.60;;;;;;;23.27;23.58;93685.85;1526540;91;21175;-55
2022/03/29 11:19:48;;;;;;;29.70;13.95;;;;;;;23.32;23.50;93673.06;1525179;91;22001;-54
2022/03/29 11:22:39;;;;;;;15.68;9.45;;;;;;;23.44;23.09;93685.47;1523528;92;21230;-52
2022/03/29 11:25:13;;;;;;;28.57;17.85;;;;;;;23.45;23.28;93686.97;1539193;92;21112;-54
2022/03/29 11:27:43;;;;;;;17.57;10.88;;;;;;;23.29;23.23;93664.35;1486950;92;21455;-54
2022/03/29 11:30:14;;;;;;;27.30;14.13;;;;;;;23.08;23.44;93662.91;1514381;92;21162;-52
2022/03/29 11:32:45;;;;;;;21.48;11.25;;;;;;;23.04;23.22;93667.47;1518762;92;21552;-51
2022/03/29 11:35:15;;;;;;;23.75;11.73;;;;;;;23.10;23.14;93652.64;1527310;91;21168;-52
2022/03/29 11:37:44;;;;;;;19.73;11.80;;;;;;;23.22;23.26;93644.00;1530429;92;21086;-54
2022/03/29 11:40:15;;;;;;;20.70;10.20;;;;;;;23.49;22.93;93652.26;1547481;90;21379;-53
2022/03/29 11:42:56;;;;;;;13.62;10.25;;;;;;;23.45;22.95;93640.64;1531710;91;21113;-55
2022/03/29 11:45:28;;;;;;;29.80;12.90;;;;;;;23.47;22.81;93633.81;1535550;91;21033;-53
2022/03/29 11:47:58;;;;;;;27.35;12.43;;;;;;;23.64;22.58;93636.86;1513938;92;21331;-53